Ascot, United Kingdom
Current Conditions -  °F | °C
As of 10:20 AM on Saturday 22 Nov 2014 (Local Time) from EGLF Reporting Station
Haze Haze  
Wind Chill: 57°   Ceiling: 900
Heat Index: 57°   Visibility: 3mi
Dew Point: 55°   Wind: 7mph
Humidity: 94%   Direction: 170°S
Pressure: 29.91"   Gusts: NA
Location:  51.41°N, 0.67°W
Report Text: EGLF 221020Z 17006KT 5000 BR SCT007 BKN009 14/13 Q1013
Loading
Personal Weather Stations






























Interactive Weather Map New forecast layout! Learn more

10-Day Weather Forecast

Advertisements
Track Severe Weather on mobile